首页
METAR-TAF:

METAR-TAF

机场 :

伊斯特爾, 法国

纬度: 43-31N, 经度: 004-56E, 海拔: 23米

当前天气观测

该预报发布于29分钟前的09:30 UTC
风速7节,风向南转西南,在东南西转西南之间变化
温度 23°C
湿度 57%
气压 1017 hPa
能见度10公里或以上
少量云层高于2900英尺
多云层高于10000英尺

METAR: LFMI 010930Z AUTO 20007KT 140V240 9999 FEW029 BKN100 23/14 Q1017 NOSIG

时间: 11:59 (09:59 UTC)

预报

该预报发布于1小时和59分钟前的08:00 UTC
预报有效从01日的 09点(UTC)到 02日的 09点(UTC)
风速7节,风向
能见度10公里或以上
1500米以下无云,无积雨云
短暂存在
从 02日的 06点(UTC)到 02日的 09点(UTC)
多云层高于1500英尺

TAF: LFMI 010800Z 0109/0209 18007KT CAVOK TEMPO 0206/0209 BKN015

超过4000个机场的气象观测和天气预报(METAR&TAF报告)。

可查询的气象台以黄色和红色小点在地图上表示。

将鼠标移到小点上方,可查看气象台名称。

然后点击查看天气观测和预报。

如需切换地图:点击带黑十字的绿色按钮放大地图;点击带横线的绿色按钮缩小地图;或者点击绿色箭头查看邻近地区的地图。


METAR-TAF: